createdAt,value
2017-12-03T00:00:44.644Z,40.30
2017-12-03T00:03:10.662Z,44.60
2017-12-03T00:05:36.681Z,42.50
2017-12-03T00:08:02.660Z,41.40
2017-12-03T00:10:28.683Z,45.88
2017-12-03T00:12:54.651Z,44.47
2017-12-03T00:15:20.650Z,46.08
2017-12-03T00:17:48.021Z,45.28
2017-12-03T00:20:14.305Z,45.20
2017-12-03T00:22:40.352Z,45.12
2017-12-03T00:25:07.087Z,40.78
2017-12-03T00:27:33.801Z,40.47
2017-12-03T00:30:00.031Z,43.03
2017-12-03T00:32:26.004Z,45.40
2017-12-03T00:34:51.992Z,40.75
2017-12-03T00:37:18.611Z,42.90
2017-12-03T00:39:44.595Z,39.78
2017-12-03T00:42:10.572Z,39.63
2017-12-03T00:44:36.521Z,44.60
2017-12-03T00:47:02.524Z,44.78
2017-12-03T00:49:29.247Z,40.40
2017-12-03T00:51:55.236Z,41.72
2017-12-03T00:54:21.981Z,40.80
2017-12-03T00:56:49.110Z,43.85
2017-12-03T00:59:15.064Z,36.55
2017-12-03T01:01:41.033Z,38.87
2017-12-03T01:04:07.012Z,37.47
2017-12-03T01:09:05.754Z,38.90
2017-12-03T01:11:31.796Z,42.85
2017-12-03T01:13:57.764Z,37.42
2017-12-03T01:16:23.750Z,38.17
2017-12-03T01:18:49.711Z,36.65
2017-12-03T01:21:15.728Z,35.03
2017-12-03T01:23:41.705Z,35.22
2017-12-03T01:26:07.708Z,36.73
2017-12-03T01:28:33.696Z,33.20
2017-12-03T01:30:59.683Z,35.45
2017-12-03T01:33:25.682Z,35.70
2017-12-03T01:35:51.680Z,39.58
2017-12-03T01:38:18.373Z,37.63
2017-12-03T01:40:44.328Z,36.80
2017-12-03T01:43:11.081Z,33.92
2017-12-03T01:45:37.792Z,39.70
2017-12-03T01:48:03.749Z,37.23
2017-12-03T01:50:29.792Z,36.15
2017-12-03T01:52:55.820Z,38.90
2017-12-03T01:55:21.809Z,37.57
2017-12-03T01:57:48.541Z,39.45
2017-12-03T02:00:15.270Z,39.97
2017-12-03T02:02:41.996Z,40.10
2017-12-03T02:05:07.965Z,39.05
2017-12-03T02:07:33.936Z,38.72
2017-12-03T02:09:59.880Z,39.33
2017-12-03T02:12:26.738Z,39.50
2017-12-03T02:14:53.455Z,40.60
2017-12-03T02:17:20.151Z,39.45
2017-12-03T02:19:46.840Z,38.88
2017-12-03T02:22:13.552Z,39.25
2017-12-03T02:24:39.553Z,37.05
2017-12-03T02:27:06.280Z,35.13
2017-12-03T02:29:32.276Z,35.45
2017-12-03T02:31:58.253Z,37.53
2017-12-03T02:34:24.274Z,33.53
2017-12-03T02:36:50.972Z,34.10
2017-12-03T02:39:16.944Z,34.03
2017-12-03T02:41:43.230Z,32.63
2017-12-03T02:44:09.230Z,29.87
2017-12-03T02:46:35.213Z,31.43
2017-12-03T02:49:01.234Z,29.67
2017-12-03T02:51:27.183Z,31.62
2017-12-03T02:53:53.892Z,30.70
2017-12-03T02:56:19.900Z,30.35
2017-12-03T02:58:45.896Z,28.67
2017-12-03T03:01:11.896Z,28.70
2017-12-03T03:03:38.639Z,25.80
2017-12-03T03:06:04.628Z,26.58
2017-12-03T03:08:30.575Z,23.57
2017-12-03T03:10:56.889Z,25.80
2017-12-03T03:13:23.624Z,23.92
2017-12-03T03:15:49.587Z,22.13
2017-12-03T03:18:15.597Z,24.30
2017-12-03T03:20:41.567Z,18.33
2017-12-03T03:23:07.574Z,19.13
2017-12-03T03:25:34.319Z,13.98
2017-12-03T03:28:00.341Z,16.65
2017-12-03T03:30:26.317Z,18.80
2017-12-03T03:32:52.535Z,18.23
2017-12-03T03:35:19.241Z,16.40
2017-12-03T03:37:45.225Z,16.95
2017-12-03T03:40:11.217Z,13.90
2017-12-03T03:42:37.944Z,13.05
2017-12-03T03:45:04.665Z,12.43
2017-12-03T03:47:30.684Z,11.50
2017-12-03T03:49:56.652Z,11.13
2017-12-03T03:52:22.601Z,12.20
2017-12-03T03:54:48.632Z,11.65
2017-12-03T03:57:14.588Z,10.73
2017-12-03T03:59:40.570Z,11.82
2017-12-03T04:02:06.548Z,12.70
2017-12-03T04:04:33.278Z,11.73
2017-12-03T04:06:59.978Z,11.43
2017-12-03T04:09:26.231Z,11.98
2017-12-03T04:11:52.229Z,11.40
2017-12-03T04:14:18.209Z,10.07
2017-12-03T04:16:44.201Z,11.12
2017-12-03T04:19:10.205Z,10.32
2017-12-03T04:21:36.208Z,11.70
2017-12-03T04:24:02.189Z,10.48
2017-12-03T04:26:28.888Z,10.32
2017-12-03T04:28:54.903Z,10.35
2017-12-03T04:31:20.884Z,10.63
2017-12-03T04:33:46.870Z,9.17
2017-12-03T04:36:12.853Z,11.07
2017-12-03T04:38:39.328Z,9.48
2017-12-03T04:41:06.047Z,8.68
2017-12-03T04:43:32.047Z,9.98
2017-12-03T04:45:58.057Z,9.82
2017-12-03T04:48:24.037Z,9.10
2017-12-03T04:50:50.805Z,10.88
2017-12-03T04:53:16.777Z,9.93
2017-12-03T04:55:42.776Z,9.48
2017-12-03T04:58:08.843Z,11.20
2017-12-03T05:00:35.553Z,11.07
2017-12-03T05:03:01.551Z,10.38
2017-12-03T05:05:27.552Z,10.60
2017-12-03T05:07:53.610Z,10.82
2017-12-03T05:10:19.593Z,11.35
2017-12-03T05:12:45.625Z,12.10
2017-12-03T05:15:11.592Z,10.43
2017-12-03T05:17:37.604Z,10.85
2017-12-03T05:20:03.628Z,10.83
2017-12-03T05:22:29.595Z,11.07
2017-12-03T05:24:55.579Z,11.48
2017-12-03T05:27:22.431Z,10.60
2017-12-03T05:29:48.420Z,11.25
2017-12-03T05:32:14.393Z,11.50
2017-12-03T05:34:41.112Z,11.00
2017-12-03T05:37:07.109Z,11.63
2017-12-03T05:39:33.077Z,10.60
2017-12-03T05:41:59.841Z,11.48
2017-12-03T05:44:25.836Z,10.00
2017-12-03T05:46:52.585Z,16.98
2017-12-03T05:49:18.581Z,13.27
2017-12-03T05:51:44.560Z,11.30
2017-12-03T05:54:10.550Z,11.73
2017-12-03T05:56:36.779Z,10.25
2017-12-03T05:59:02.768Z,11.07
2017-12-03T06:01:28.772Z,10.77
2017-12-03T06:03:54.752Z,12.20
2017-12-03T06:06:20.764Z,13.75
2017-12-03T06:08:46.729Z,13.23
2017-12-03T06:11:12.746Z,10.90
2017-12-03T06:13:38.724Z,10.65
2017-12-03T06:16:05.432Z,10.53
2017-12-03T06:18:31.470Z,11.98
2017-12-03T06:20:58.196Z,11.47
2017-12-03T06:23:24.212Z,11.20
2017-12-03T06:25:50.177Z,12.23
2017-12-03T06:28:16.160Z,12.20
2017-12-03T06:30:42.183Z,14.40
2017-12-03T06:33:08.214Z,12.10
2017-12-03T06:35:34.949Z,12.70
2017-12-03T06:38:00.943Z,12.60
2017-12-03T06:40:26.896Z,12.07
2017-12-03T06:42:52.865Z,11.90
2017-12-03T06:45:18.872Z,13.27
2017-12-03T06:47:44.849Z,12.25
2017-12-03T06:50:10.812Z,12.30
2017-12-03T06:52:36.888Z,12.10
2017-12-03T06:55:02.864Z,13.43
2017-12-03T06:57:28.832Z,13.47
2017-12-03T06:59:54.856Z,13.30
2017-12-03T07:02:20.853Z,14.32
2017-12-03T07:04:46.822Z,14.33
2017-12-03T07:07:13.579Z,13.88
2017-12-03T07:09:39.556Z,16.00
2017-12-03T07:12:05.541Z,13.95
2017-12-03T07:14:31.520Z,14.87
2017-12-03T07:16:58.241Z,15.52
2017-12-03T07:19:24.214Z,15.47
2017-12-03T07:21:50.316Z,16.83
2017-12-03T07:24:17.036Z,16.00
2017-12-03T07:26:42.987Z,17.48
2017-12-03T07:29:09.075Z,17.33
2017-12-03T07:31:35.036Z,17.05
2017-12-03T07:34:01.058Z,19.48
2017-12-03T07:36:27.361Z,22.00
2017-12-03T07:38:54.097Z,19.70
2017-12-03T07:41:20.076Z,19.35
2017-12-03T07:43:46.056Z,20.00
2017-12-03T07:46:12.780Z,19.10
2017-12-03T07:48:38.732Z,20.00
2017-12-03T07:51:04.703Z,20.23
2017-12-03T07:53:30.722Z,20.05
2017-12-03T07:55:56.704Z,20.05
2017-12-03T07:58:22.683Z,18.90
2017-12-03T08:00:48.751Z,19.45
2017-12-03T08:03:14.737Z,19.10
2017-12-03T08:05:40.692Z,18.80
2017-12-03T08:08:06.665Z,19.35
2017-12-03T08:10:32.646Z,17.73
2017-12-03T08:12:58.634Z,19.92
2017-12-03T08:15:25.345Z,18.03
2017-12-03T08:17:51.382Z,19.70
2017-12-03T08:20:18.101Z,20.07
2017-12-03T08:22:44.100Z,19.23
2017-12-03T08:25:10.060Z,21.47
2017-12-03T08:27:36.068Z,21.37
2017-12-03T08:30:02.033Z,20.65
2017-12-03T08:32:28.021Z,20.70
2017-12-03T08:34:54.129Z,18.65
2017-12-03T08:37:20.100Z,20.88
2017-12-03T08:39:46.092Z,18.08
2017-12-03T08:42:12.085Z,20.83
2017-12-03T08:44:38.076Z,18.40
2017-12-03T08:47:04.038Z,20.02
2017-12-03T08:49:30.291Z,18.75
2017-12-03T08:51:56.996Z,20.33
2017-12-03T08:54:22.959Z,18.80
2017-12-03T08:56:50.524Z,21.83
2017-12-03T08:59:17.240Z,18.65
2017-12-03T09:01:43.220Z,17.27
2017-12-03T09:04:09.236Z,16.77
2017-12-03T09:06:35.188Z,19.50
2017-12-03T09:09:01.161Z,17.98
2017-12-03T09:11:27.152Z,18.87
2017-12-03T09:13:53.113Z,16.60
2017-12-03T09:16:19.104Z,20.00
2017-12-03T09:18:45.924Z,21.70
2017-12-03T09:21:11.913Z,17.73
2017-12-03T09:23:38.141Z,18.37
2017-12-03T09:26:04.133Z,19.47
2017-12-03T09:28:30.132Z,16.48
2017-12-03T09:30:56.851Z,16.08
2017-12-03T09:33:22.845Z,16.65
2017-12-03T09:35:48.793Z,14.52
2017-12-03T09:38:14.765Z,14.70
2017-12-03T09:40:40.945Z,15.10
2017-12-03T09:43:06.904Z,16.85
2017-12-03T09:45:32.880Z,15.60
2017-12-03T09:47:59.748Z,15.32
2017-12-03T09:50:26.461Z,15.47
2017-12-03T09:52:52.464Z,16.48
2017-12-03T09:55:19.344Z,16.20
2017-12-03T09:57:45.333Z,18.10
2017-12-03T10:00:11.348Z,16.95
2017-12-03T10:02:37.389Z,17.92
2017-12-03T10:05:03.388Z,17.62
2017-12-03T10:07:29.351Z,15.88
2017-12-03T10:09:55.352Z,15.63
2017-12-03T10:12:21.314Z,19.00
2017-12-03T10:14:48.182Z,15.90
2017-12-03T10:17:14.160Z,15.68
2017-12-03T10:19:40.117Z,14.82
2017-12-03T10:22:06.126Z,17.73
2017-12-03T10:24:32.112Z,17.42
2017-12-03T10:26:58.076Z,18.00
2017-12-03T10:29:24.081Z,15.57
2017-12-03T10:31:50.779Z,16.67
2017-12-03T10:34:16.744Z,18.25
2017-12-03T10:36:43.476Z,18.05
2017-12-03T10:39:10.192Z,19.08
2017-12-03T10:41:36.164Z,18.67
2017-12-03T10:44:02.444Z,20.70
2017-12-03T10:46:28.414Z,21.48
2017-12-03T10:48:54.369Z,22.00
2017-12-03T10:51:20.367Z,23.27
2017-12-03T10:53:46.328Z,21.87
2017-12-03T10:56:12.301Z,23.37
2017-12-03T10:58:38.576Z,24.25
2017-12-03T11:01:04.572Z,24.63
2017-12-03T11:03:30.562Z,25.12
2017-12-03T11:05:56.616Z,25.92
2017-12-03T11:08:22.606Z,25.17
2017-12-03T11:10:48.594Z,23.03
2017-12-03T11:13:14.583Z,25.55
2017-12-03T11:15:40.572Z,23.02
2017-12-03T11:18:06.605Z,28.23
2017-12-03T11:20:32.886Z,26.33
2017-12-03T11:22:58.892Z,25.83
2017-12-03T11:25:24.861Z,25.90
2017-12-03T11:27:51.701Z,23.85
2017-12-03T11:30:18.441Z,23.30
2017-12-03T11:32:44.728Z,26.08
2017-12-03T11:35:10.740Z,27.08
2017-12-03T11:37:36.885Z,28.43
2017-12-03T11:40:02.924Z,28.65
2017-12-03T11:42:29.640Z,28.40
2017-12-03T11:44:55.633Z,30.65
2017-12-03T11:47:21.653Z,27.33
2017-12-03T11:49:47.654Z,27.33
2017-12-03T11:52:13.666Z,30.05
2017-12-03T11:54:39.720Z,32.97
2017-12-03T11:57:05.674Z,31.90
2017-12-03T11:59:31.651Z,32.17
2017-12-03T12:01:57.633Z,34.90
2017-12-03T12:04:24.433Z,34.17
2017-12-03T12:06:50.411Z,33.47
2017-12-03T12:09:16.404Z,32.47
2017-12-03T12:11:42.410Z,33.42
2017-12-03T12:14:08.393Z,36.37
2017-12-03T12:16:34.375Z,33.35
2017-12-03T12:19:00.781Z,38.25
2017-12-03T12:21:26.887Z,35.05
2017-12-03T12:23:52.901Z,36.50
2017-12-03T12:26:18.896Z,38.78
2017-12-03T12:28:45.673Z,42.15
2017-12-03T12:31:11.679Z,39.88
2017-12-03T12:33:37.665Z,39.35
2017-12-03T12:36:04.386Z,40.10
2017-12-03T12:38:30.494Z,40.50
2017-12-03T12:40:56.481Z,43.37
2017-12-03T12:43:22.493Z,48.45
2017-12-03T12:45:48.491Z,48.47
2017-12-03T12:48:14.452Z,86.12
2017-12-03T12:50:40.429Z,117.65
2017-12-03T12:53:07.885Z,75.80
2017-12-03T12:55:34.644Z,47.15
2017-12-03T12:58:01.352Z,48.53
2017-12-03T13:00:27.442Z,54.38
2017-12-03T13:02:54.247Z,50.45
2017-12-03T13:05:21.001Z,49.83
2017-12-03T13:07:46.993Z,53.35
2017-12-03T13:10:12.945Z,45.80
2017-12-03T13:12:38.912Z,50.47
2017-12-03T13:15:05.134Z,55.92
2017-12-03T13:17:31.105Z,50.73
2017-12-03T13:19:57.839Z,54.85
2017-12-03T13:22:24.597Z,48.27
2017-12-03T13:24:50.568Z,51.75
2017-12-03T13:27:16.560Z,48.40
2017-12-03T13:29:42.557Z,52.38
2017-12-03T13:32:08.536Z,48.45
2017-12-03T13:34:34.508Z,51.53
2017-12-03T13:37:00.549Z,48.50
2017-12-03T13:39:26.534Z,49.97
2017-12-03T13:41:53.265Z,52.28
2017-12-03T13:44:20.329Z,50.75
2017-12-03T13:46:46.304Z,46.42
2017-12-03T13:49:19.412Z,50.70
2017-12-03T13:51:45.372Z,44.63
2017-12-03T13:54:11.369Z,46.33
2017-12-03T13:56:38.336Z,45.15
2017-12-03T13:59:05.066Z,44.92
2017-12-03T14:01:31.072Z,45.30
2017-12-03T14:03:57.830Z,44.95
2017-12-03T14:06:23.820Z,47.70
2017-12-03T14:08:49.803Z,49.72
2017-12-03T14:11:15.808Z,44.10
2017-12-03T14:13:41.803Z,41.70
2017-12-03T14:16:08.543Z,36.40
2017-12-03T14:18:35.317Z,40.55
2017-12-03T14:21:01.286Z,39.65
2017-12-03T14:23:27.272Z,40.25
2017-12-03T14:25:53.241Z,42.90
2017-12-03T14:28:19.955Z,40.50
2017-12-03T14:30:46.001Z,43.53
2017-12-03T14:33:12.724Z,44.42
2017-12-03T14:35:38.760Z,40.80
2017-12-03T14:38:05.337Z,41.40
2017-12-03T14:40:31.327Z,41.78
2017-12-03T14:42:58.062Z,50.00
2017-12-03T14:45:24.865Z,45.75
2017-12-03T14:47:50.886Z,53.63
2017-12-03T14:50:16.891Z,44.58
2017-12-03T14:52:42.924Z,47.97
2017-12-03T14:55:08.977Z,48.00
2017-12-03T14:57:35.098Z,52.35
2017-12-03T15:00:01.112Z,47.05
2017-12-03T15:02:27.136Z,52.25
2017-12-03T15:04:53.142Z,47.50
2017-12-03T15:07:19.173Z,52.57
2017-12-03T15:09:45.168Z,43.87
2017-12-03T15:12:11.193Z,45.60
2017-12-03T15:14:37.468Z,45.97
2017-12-03T15:17:04.199Z,43.50
2017-12-03T15:19:30.229Z,47.47
2017-12-03T15:21:56.226Z,49.00
2017-12-03T15:24:22.243Z,41.33
2017-12-03T15:26:48.284Z,42.63
2017-12-03T15:29:14.353Z,44.95
2017-12-03T15:31:40.356Z,41.08
2017-12-03T15:34:07.074Z,41.87
2017-12-03T15:36:34.063Z,41.65
2017-12-03T15:39:00.856Z,36.73
2017-12-03T15:41:26.865Z,38.42
2017-12-03T15:43:52.833Z,41.87
2017-12-03T15:46:18.832Z,37.33
2017-12-03T15:48:45.595Z,39.45
2017-12-03T15:51:11.600Z,40.38
2017-12-03T15:53:38.352Z,39.13
2017-12-03T15:56:05.085Z,42.30
2017-12-03T15:58:32.128Z,46.22
2017-12-03T16:00:58.882Z,42.42
2017-12-03T16:03:25.616Z,43.93
2017-12-03T16:05:52.340Z,42.97
2017-12-03T16:08:19.089Z,41.10
2017-12-03T16:10:45.822Z,40.30
2017-12-03T16:13:12.560Z,41.75
2017-12-03T16:15:39.304Z,39.58
2017-12-03T16:18:06.021Z,40.95
2017-12-03T16:20:32.043Z,40.17
2017-12-03T16:22:58.069Z,41.57
2017-12-03T16:25:24.035Z,41.42
2017-12-03T16:27:50.097Z,36.60
2017-12-03T16:30:16.059Z,39.17
2017-12-03T16:32:43.138Z,42.67
2017-12-03T16:35:09.182Z,36.85
2017-12-03T16:37:35.275Z,38.35
2017-12-03T16:40:01.283Z,36.03
2017-12-03T16:42:27.313Z,37.20
2017-12-03T16:44:53.277Z,41.90
2017-12-03T16:47:19.269Z,35.08
2017-12-03T16:49:45.260Z,49.05
2017-12-03T16:52:12.041Z,74.22
2017-12-03T16:54:38.041Z,64.53
2017-12-03T16:57:04.037Z,45.65
2017-12-03T16:59:30.809Z,30.88
2017-12-03T17:01:56.819Z,34.85
2017-12-03T17:04:22.795Z,40.60
2017-12-03T17:06:48.774Z,36.60
2017-12-03T17:09:14.774Z,29.40
2017-12-03T17:11:41.528Z,30.30
2017-12-03T17:14:07.557Z,30.25
2017-12-03T17:16:34.300Z,26.67
2017-12-03T17:19:00.285Z,28.85
2017-12-03T17:21:27.003Z,31.02
2017-12-03T17:23:53.024Z,24.67
2017-12-03T17:26:19.033Z,27.77
2017-12-03T17:28:45.025Z,38.80
2017-12-03T17:31:11.039Z,26.12
2017-12-03T17:33:37.064Z,31.50
2017-12-03T17:36:03.080Z,26.08
2017-12-03T17:38:29.423Z,27.08
2017-12-03T17:40:55.447Z,26.27
2017-12-03T17:43:21.431Z,31.77
2017-12-03T17:45:48.375Z,29.95
2017-12-03T17:48:15.107Z,32.63
2017-12-03T17:50:41.832Z,37.95
2017-12-03T17:53:07.870Z,28.60
2017-12-03T17:55:33.876Z,29.55
2017-12-03T17:57:59.910Z,38.40
2017-12-03T18:00:25.937Z,36.15
2017-12-03T18:02:51.914Z,33.83
2017-12-03T18:05:17.876Z,39.55
2017-12-03T18:07:43.895Z,34.05
2017-12-03T18:10:09.845Z,37.40
2017-12-03T18:12:35.838Z,30.10
2017-12-03T18:15:01.878Z,31.08
2017-12-03T18:17:28.597Z,30.73
2017-12-03T18:19:54.572Z,29.30
2017-12-03T18:22:20.585Z,22.45
2017-12-03T18:24:46.572Z,26.08
2017-12-03T18:27:12.525Z,23.87
2017-12-03T18:29:38.534Z,23.12
2017-12-03T18:32:05.236Z,21.92
2017-12-03T18:34:31.266Z,22.00
2017-12-03T18:36:57.300Z,22.47
2017-12-03T18:39:24.041Z,24.75
2017-12-03T18:41:50.812Z,23.77
2017-12-03T18:44:16.806Z,25.08
2017-12-03T18:46:43.541Z,19.70
2017-12-03T18:49:10.273Z,24.40
2017-12-03T18:51:36.269Z,22.42
2017-12-03T18:54:02.281Z,15.68
2017-12-03T18:56:28.257Z,18.53
2017-12-03T18:58:55.027Z,19.05
2017-12-03T19:01:21.036Z,19.43
2017-12-03T19:03:47.020Z,21.58
2017-12-03T19:06:13.317Z,18.35
2017-12-03T19:08:39.292Z,21.50
2017-12-03T19:11:06.012Z,19.80
2017-12-03T19:13:32.014Z,20.53
2017-12-03T19:15:58.002Z,17.95
2017-12-03T19:18:23.993Z,20.73
2017-12-03T19:20:50.877Z,20.80
2017-12-03T19:23:16.844Z,21.50
2017-12-03T19:25:42.817Z,22.02
2017-12-03T19:28:08.792Z,19.98
2017-12-03T19:30:35.525Z,23.87
2017-12-03T19:33:01.561Z,23.33
2017-12-03T19:35:28.289Z,21.80
2017-12-03T19:37:54.286Z,23.05
2017-12-03T19:40:20.239Z,24.40
2017-12-03T19:42:46.995Z,20.00
2017-12-03T19:45:12.975Z,18.92
2017-12-03T19:47:38.959Z,21.30
2017-12-03T19:50:04.972Z,22.23
2017-12-03T19:52:30.949Z,25.92
2017-12-03T19:54:56.939Z,27.37
2017-12-03T19:57:22.934Z,25.98
2017-12-03T19:59:48.936Z,25.80
2017-12-03T20:02:15.632Z,22.43
2017-12-03T20:04:41.630Z,22.25
2017-12-03T20:07:07.597Z,20.35
2017-12-03T20:09:33.597Z,24.25
2017-12-03T20:11:59.600Z,19.20
2017-12-03T20:14:25.585Z,25.48
2017-12-03T20:16:52.310Z,24.02
2017-12-03T20:19:18.293Z,18.20
2017-12-03T20:21:44.283Z,24.75
2017-12-03T20:24:10.260Z,23.87
2017-12-03T20:26:36.304Z,23.65
2017-12-03T20:29:03.019Z,22.70
2017-12-03T20:31:29.023Z,26.83
2017-12-03T20:33:55.007Z,25.42
2017-12-03T20:36:21.005Z,21.58
2017-12-03T20:38:48.665Z,20.23
2017-12-03T20:41:15.421Z,25.75
2017-12-03T20:43:42.262Z,23.67
2017-12-03T20:46:09.131Z,21.10
2017-12-03T20:48:35.239Z,22.73
2017-12-03T20:51:01.260Z,21.52
2017-12-03T20:53:27.565Z,19.17
2017-12-03T20:55:54.388Z,19.27
2017-12-03T20:58:20.369Z,25.37
2017-12-03T21:00:46.482Z,22.45
2017-12-03T21:03:12.462Z,20.85
2017-12-03T21:05:38.443Z,19.95
2017-12-03T21:08:04.432Z,19.70
2017-12-03T21:10:31.141Z,17.15
2017-12-03T21:12:57.133Z,17.90
2017-12-03T21:15:23.420Z,18.85
2017-12-03T21:17:50.140Z,16.73
2017-12-03T21:20:16.172Z,21.90
2017-12-03T21:22:43.024Z,17.80
2017-12-03T21:25:09.750Z,19.00
2017-12-03T21:27:36.500Z,21.52
2017-12-03T21:30:06.204Z,18.58
2017-12-03T21:32:32.966Z,21.25
2017-12-03T21:34:58.984Z,21.40
2017-12-03T21:37:24.961Z,23.75
2017-12-03T21:39:50.962Z,16.53
2017-12-03T21:42:16.947Z,21.00
2017-12-03T21:44:42.920Z,20.95
2017-12-03T21:47:08.964Z,17.67
2017-12-03T21:49:34.974Z,21.10
2017-12-03T21:52:00.973Z,18.00
2017-12-03T21:54:26.948Z,20.08
2017-12-03T21:56:53.684Z,16.42
2017-12-03T21:59:19.818Z,22.70
2017-12-03T22:01:45.802Z,24.17
2017-12-03T22:04:11.840Z,23.13
2017-12-03T22:06:38.612Z,22.20
2017-12-03T22:09:04.989Z,22.57
2017-12-03T22:11:30.954Z,23.40
2017-12-03T22:13:56.969Z,20.70
2017-12-03T22:16:23.682Z,23.77
2017-12-03T22:18:49.672Z,19.58
2017-12-03T22:21:15.700Z,23.07
2017-12-03T22:23:41.644Z,26.40
2017-12-03T22:26:08.437Z,26.70
2017-12-03T22:28:34.400Z,23.70
2017-12-03T22:31:00.458Z,19.60
2017-12-03T22:33:27.486Z,22.50
2017-12-03T22:35:53.452Z,17.27
2017-12-03T22:38:19.429Z,20.47
2017-12-03T22:40:45.520Z,25.92
2017-12-03T22:43:11.492Z,18.33
2017-12-03T22:45:38.211Z,21.80
2017-12-03T22:48:04.195Z,20.95
2017-12-03T22:50:30.177Z,24.83
2017-12-03T22:52:56.884Z,19.12
2017-12-03T22:55:23.192Z,16.67
2017-12-03T22:57:49.181Z,19.87
2017-12-03T23:00:15.137Z,17.85
2017-12-03T23:02:41.124Z,21.40
2017-12-03T23:05:07.103Z,22.23
2017-12-03T23:07:33.059Z,17.00
2017-12-03T23:09:59.068Z,19.27
2017-12-03T23:12:25.795Z,15.98
2017-12-03T23:14:52.575Z,19.33
2017-12-03T23:17:18.577Z,21.52
2017-12-03T23:19:44.550Z,17.35
2017-12-03T23:22:10.576Z,40.20
2017-12-03T23:24:36.579Z,53.67
2017-12-03T23:27:10.885Z,15.32
2017-12-03T23:29:37.008Z,12.25
2017-12-03T23:32:02.984Z,17.60
2017-12-03T23:34:29.726Z,19.52
2017-12-03T23:36:56.467Z,18.93
2017-12-03T23:39:23.234Z,15.85
2017-12-03T23:41:49.224Z,19.50
2017-12-03T23:44:15.990Z,12.32
2017-12-03T23:46:42.025Z,17.40
2017-12-03T23:49:08.012Z,16.48
2017-12-03T23:51:34.756Z,19.27
2017-12-03T23:54:01.506Z,21.48
2017-12-03T23:56:27.516Z,17.27
2017-12-03T23:58:53.509Z,15.85
